Time;durP1;ratioP1;P1;durP2;ratioP2;P2;SDS_P1;SDS_P2;PMS_P1;PMS_P2;Temp;Humidity;BMP_temperature;BMP_pressure;BME280_temperature;BME280_humidity;BME280_pressure;Samples;Min_cycle;Max_cycle;Signal;HPM_P1;HPM_P2
2023/05/08 00:01:33;;;;;;;5.30;4.82;;;;;;;12.41;99.34;63277.66;5020009;28;20260;-77
2023/05/08 00:04:00;;;;;;;5.65;4.97;;;;;;;12.46;99.01;63288.47;5020797;28;20205;-77
2023/05/08 00:06:27;;;;;;;6.18;4.95;;;;;;;12.45;98.93;63279.25;5028221;28;20283;-77
2023/05/08 00:08:56;;;;;;;5.50;5.10;;;;;;;12.48;99.20;63282.38;5025362;28;20258;-77
2023/05/08 00:11:24;;;;;;;5.70;5.10;;;;;;;12.49;99.55;63289.03;5029149;28;20273;-77
2023/05/08 00:13:52;;;;;;;5.78;5.28;;;;;;;12.44;99.60;63286.41;5027541;28;20206;-77
2023/05/08 00:16:19;;;;;;;5.25;4.85;;;;;;;12.43;100.00;63282.81;5028409;28;20258;-77
2023/05/08 00:18:46;;;;;;;6.47;5.75;;;;;;;12.34;100.00;63270.41;5027351;28;20229;-77
2023/05/08 00:21:13;;;;;;;7.97;6.22;;;;;;;12.35;100.00;63274.00;5028591;28;20418;-76
2023/05/08 00:23:40;;;;;;;5.25;4.85;;;;;;;12.33;100.00;63275.00;5030621;28;20199;-78
2023/05/08 00:26:08;;;;;;;5.20;4.90;;;;;;;12.33;100.00;63272.47;5026229;28;20202;-76
2023/05/08 00:28:36;;;;;;;5.97;5.32;;;;;;;12.28;100.00;63266.75;5026933;28;20428;-77
2023/05/08 00:31:04;;;;;;;5.85;5.28;;;;;;;12.24;100.00;63265.69;5027536;28;20195;-78
2023/05/08 00:33:31;;;;;;;5.63;5.13;;;;;;;12.29;100.00;63268.31;5028868;28;20209;-78
2023/05/08 00:36:01;;;;;;;5.97;5.57;;;;;;;12.29;100.00;63272.88;5018469;28;20367;-77
2023/05/08 00:38:31;;;;;;;6.15;5.65;;;;;;;12.32;100.00;63273.97;5029933;28;20195;-78
2023/05/08 00:40:58;;;;;;;8.05;5.13;;;;;;;12.28;100.00;63266.75;5023256;28;20218;-77
2023/05/08 00:43:27;;;;;;;6.20;5.60;;;;;;;12.16;100.00;63254.31;5027614;28;20237;-79
2023/05/08 00:45:59;;;;;;;6.15;5.65;;;;;;;12.02;100.00;63237.78;5025680;28;20371;-78
2023/05/08 00:48:30;;;;;;;9.70;5.70;;;;;;;12.07;100.00;63245.50;5029677;28;20230;-77
2023/05/08 00:50:58;;;;;;;5.25;4.90;;;;;;;12.08;100.00;63243.97;5026747;28;20534;-78
2023/05/08 00:53:27;;;;;;;7.97;5.43;;;;;;;12.13;100.00;63253.75;5025393;28;20245;-77
2023/05/08 00:55:54;;;;;;;5.55;5.13;;;;;;;12.12;100.00;63253.22;5023485;28;20237;-77
2023/05/08 00:58:23;;;;;;;6.93;5.63;;;;;;;12.10;100.00;63245.53;5024744;28;20199;-77
2023/05/08 01:00:53;;;;;;;6.03;5.53;;;;;;;12.05;100.00;63248.00;5027327;28;20206;-77
2023/05/08 01:03:22;;;;;;;6.47;5.75;;;;;;;11.96;100.00;63231.53;5008873;28;20227;-76
2023/05/08 01:05:49;;;;;;;6.28;5.68;;;;;;;11.91;100.00;63228.91;5027935;28;20195;-77
2023/05/08 01:08:17;;;;;;;8.48;5.80;;;;;;;11.89;100.00;63223.78;5027762;28;20237;-77
2023/05/08 01:11:01;;;;;;;6.97;6.30;;;;;;;11.81;100.00;63220.59;5024183;28;20214;-78
2023/05/08 01:13:42;;;;;;;7.05;5.82;;;;;;;11.75;100.00;63209.81;5011482;28;20443;-77
2023/05/08 01:16:16;;;;;;;7.38;6.65;;;;;;;11.70;100.00;63206.66;5036056;28;20198;-77
2023/05/08 01:18:51;;;;;;;5.63;5.20;;;;;;;11.57;100.00;63191.13;5030459;28;20211;-78
2023/05/08 01:21:27;;;;;;;6.32;5.75;;;;;;;11.59;100.00;63198.28;5023576;28;20302;-78
2023/05/08 01:24:31;;;;;;;5.65;5.13;;;;;;;11.56;100.00;63190.09;5027073;28;20263;-76
2023/05/08 01:27:45;;;;;;;6.63;5.68;;;;;;;11.50;100.00;63183.88;5026887;28;20405;-77
2023/05/08 01:30:54;;;;;;;14.18;7.05;;;;;;;11.51;100.00;63187.97;5024664;28;20214;-77
2023/05/08 01:33:30;;;;;;;6.93;6.22;;;;;;;11.52;100.00;63193.59;5029492;28;20213;-78
2023/05/08 01:36:06;;;;;;;6.75;6.05;;;;;;;11.55;100.00;63194.16;5026584;28;20386;-78
2023/05/08 01:38:40;;;;;;;6.78;5.60;;;;;;;11.58;100.00;63194.69;5023984;28;20202;-77
2023/05/08 01:41:11;;;;;;;7.18;5.82;;;;;;;11.61;100.00;63200.88;5026586;28;20422;-77
2023/05/08 01:43:48;;;;;;;7.53;5.53;;;;;;;11.61;100.00;63198.31;5025982;28;20203;-77
2023/05/08 01:46:20;;;;;;;6.57;5.60;;;;;;;11.60;100.00;63199.84;5027131;28;20413;-77
2023/05/08 01:48:51;;;;;;;6.22;5.65;;;;;;;11.58;100.00;63197.78;5023285;28;20366;-77
2023/05/08 01:51:21;;;;;;;6.25;5.65;;;;;;;11.47;100.00;63181.28;5024134;28;20217;-78
2023/05/08 01:53:52;;;;;;;6.18;5.47;;;;;;;11.54;100.00;63188.03;5024554;28;20214;-77
2023/05/08 01:56:22;;;;;;;5.82;5.30;;;;;;;11.53;100.00;63189.53;5022981;28;20241;-76
2023/05/08 01:58:52;;;;;;;10.88;5.40;;;;;;;11.54;100.00;63190.56;5012115;28;20225;-78
2023/05/08 02:01:23;;;;;;;6.05;5.40;;;;;;;11.45;100.00;63181.75;5024324;28;20225;-77
2023/05/08 02:03:54;;;;;;;7.97;5.53;;;;;;;11.32;100.00;63162.69;5028341;28;20199;-77
2023/05/08 02:06:22;;;;;;;6.15;5.55;;;;;;;11.39;100.00;63175.00;5023957;28;20445;-77
2023/05/08 02:08:51;;;;;;;6.07;5.45;;;;;;;11.33;100.00;63171.34;5026076;28;20260;-78
2023/05/08 02:11:20;;;;;;;6.40;5.90;;;;;;;11.28;100.00;63163.63;5026114;28;20220;-78
2023/05/08 02:13:48;;;;;;;7.32;6.35;;;;;;;11.19;100.00;63159.94;5025029;28;20602;-77
2023/05/08 02:16:17;;;;;;;7.85;6.68;;;;;;;11.13;100.00;63148.59;5024193;28;20257;-76
2023/05/08 02:18:49;;;;;;;7.22;6.57;;;;;;;11.32;100.00;63168.28;5026068;28;20452;-76
2023/05/08 02:21:19;;;;;;;6.45;5.50;;;;;;;11.30;100.00;63165.72;5024521;28;20456;-77
2023/05/08 02:23:47;;;;;;;7.50;6.20;;;;;;;11.31;100.00;63164.72;5021208;28;20199;-78
2023/05/08 02:26:16;;;;;;;8.20;6.65;;;;;;;11.35;100.00;63171.41;5021420;28;20233;-77
2023/05/08 02:28:44;;;;;;;9.20;6.45;;;;;;;11.35;100.00;63168.84;5022875;28;20297;-77
2023/05/08 02:31:13;;;;;;;10.02;6.78;;;;;;;11.38;100.00;63171.44;5025989;28;20282;-78
2023/05/08 02:33:42;;;;;;;8.85;6.57;;;;;;;11.36;100.00;63166.81;5021708;28;20198;-77
2023/05/08 02:36:13;;;;;;;7.13;6.20;;;;;;;11.37;100.00;63178.06;5021359;28;20213;-76
2023/05/08 02:38:45;;;;;;;6.78;6.18;;;;;;;11.39;100.00;63170.44;5023170;28;20555;-77
2023/05/08 02:41:13;;;;;;;6.50;5.90;;;;;;;11.44;100.00;63180.22;5026236;28;20222;-76
2023/05/08 02:43:41;;;;;;;7.63;6.05;;;;;;;11.40;100.00;63174.03;5022515;28;20207;-77
2023/05/08 02:46:14;;;;;;;6.72;6.15;;;;;;;11.44;100.00;63183.25;5023785;28;20210;-77
2023/05/08 02:48:48;;;;;;;6.63;5.90;;;;;;;11.40;100.00;63178.63;5029155;28;20542;-76
2023/05/08 02:51:21;;;;;;;6.25;5.72;;;;;;;11.40;100.00;63176.06;5023781;28;20222;-77
2023/05/08 02:53:55;;;;;;;6.07;5.53;;;;;;;11.41;100.00;63177.09;5014653;28;20202;-77
2023/05/08 02:56:33;;;;;;;6.65;6.15;;;;;;;11.42;100.00;63178.66;5024446;28;20218;-77
2023/05/08 02:59:15;;;;;;;6.60;6.07;;;;;;;11.39;100.00;63173.00;5025274;28;20212;-77
2023/05/08 03:01:52;;;;;;;6.25;5.75;;;;;;;11.39;100.00;63175.00;5020567;28;20557;-77
2023/05/08 03:04:26;;;;;;;6.82;6.20;;;;;;;11.40;100.00;63176.59;5026731;28;20213;-76
2023/05/08 03:06:56;;;;;;;7.13;6.50;;;;;;;11.37;100.00;63173.47;5025183;28;20286;-77
2023/05/08 03:09:32;;;;;;;7.15;6.53;;;;;;;11.49;100.00;63185.38;5024967;28;20233;-77
2023/05/08 03:12:04;;;;;;;6.78;6.18;;;;;;;11.51;100.00;63182.88;5023733;28;20260;-78
2023/05/08 03:14:37;;;;;;;7.22;6.53;;;;;;;11.51;100.00;63184.91;5025173;28;20266;-78
2023/05/08 03:17:07;;;;;;;9.27;6.43;;;;;;;11.55;100.00;63191.59;5023279;28;20218;-77
2023/05/08 03:19:39;;;;;;;6.43;5.82;;;;;;;11.59;100.00;63196.28;5018368;28;20203;-77
2023/05/08 03:22:08;;;;;;;6.30;5.80;;;;;;;11.56;100.00;63190.59;5013664;28;20602;-77
2023/05/08 03:24:38;;;;;;;6.93;5.43;;;;;;;11.61;100.00;63200.88;5026160;28;20207;-78
2023/05/08 03:27:07;;;;;;;6.60;5.95;;;;;;;11.62;100.00;63204.47;5023939;28;20228;-77
2023/05/08 03:29:36;;;;;;;5.82;5.13;;;;;;;11.68;100.00;63204.56;5021392;28;20387;-77
2023/05/08 03:32:04;;;;;;;10.90;6.63;;;;;;;11.67;100.00;63203.53;5009960;28;20222;-78
2023/05/08 03:34:32;;;;;;;6.32;5.82;;;;;;;11.74;100.00;63211.31;5021706;28;20195;-77
2023/05/08 03:37:00;;;;;;;6.55;5.55;;;;;;;11.82;100.00;63219.09;5016052;28;20222;-77
2023/05/08 03:39:28;;;;;;;7.03;6.38;;;;;;;11.81;100.00;63220.59;5018850;28;20198;-77
2023/05/08 03:41:57;;;;;;;6.95;5.75;;;;;;;11.87;100.00;63232.44;5027636;28;20218;-77
2023/05/08 03:44:25;;;;;;;6.50;5.90;;;;;;;11.90;100.00;63227.88;5027452;28;20206;-78
2023/05/08 03:46:56;;;;;;;5.75;5.22;;;;;;;12.00;100.00;63240.28;5022151;28;20238;-77
2023/05/08 03:49:27;;;;;;;5.88;5.38;;;;;;;12.05;100.00;63242.91;5020134;28;20257;-77
2023/05/08 03:51:55;;;;;;;11.95;5.85;;;;;;;12.10;100.00;63246.06;5026346;28;20467;-77
2023/05/08 03:54:24;;;;;;;6.13;5.53;;;;;;;12.14;100.00;63252.75;5019004;28;20459;-77
2023/05/08 03:56:52;;;;;;;5.85;5.22;;;;;;;12.21;100.00;63265.13;5020112;28;20415;-77
2023/05/08 03:59:30;;;;;;;6.57;5.38;;;;;;;12.26;100.00;63265.19;5025953;28;20203;-77
2023/05/08 04:02:08;;;;;;;7.30;5.78;;;;;;;12.36;100.00;63277.59;5018482;28;20258;-77
2023/05/08 04:04:40;;;;;;;6.40;5.53;;;;;;;12.48;100.00;63282.38;5019773;28;20202;-77
2023/05/08 04:07:12;;;;;;;7.00;6.30;;;;;;;12.50;100.00;63290.06;5026019;28;20215;-78
2023/05/08 04:09:49;;;;;;;6.00;5.40;;;;;;;12.60;100.00;63299.91;5023952;28;20236;-77
2023/05/08 04:12:21;;;;;;;5.85;5.35;;;;;;;12.63;100.00;63303.56;5022169;28;20412;-78
2023/05/08 04:14:53;;;;;;;6.45;5.45;;;;;;;12.72;100.00;63307.78;5026683;28;20226;-77
2023/05/08 04:17:27;;;;;;;5.97;5.47;;;;;;;12.73;100.00;63313.41;5019752;28;20218;-77
2023/05/08 04:20:01;;;;;;;6.22;5.72;;;;;;;12.63;100.00;63301.00;5024302;28;20517;-77
2023/05/08 04:22:32;;;;;;;5.72;5.22;;;;;;;12.78;100.00;63319.13;5025277;28;20222;-77
2023/05/08 04:25:02;;;;;;;5.32;4.93;;;;;;;12.88;100.00;63328.44;5022637;28;20222;-78
2023/05/08 04:27:30;;;;;;;6.35;5.85;;;;;;;12.95;100.00;63335.69;5023463;28;20226;-76
2023/05/08 04:29:59;;;;;;;8.18;5.80;;;;;;;12.95;100.00;63335.69;5024620;28;20226;-78
2023/05/08 04:32:28;;;;;;;6.85;6.20;;;;;;;13.00;100.00;63338.84;5017662;28;20221;-77
2023/05/08 04:34:55;;;;;;;6.30;5.72;;;;;;;12.97;100.00;63335.22;5017180;28;20222;-76
2023/05/08 04:37:26;;;;;;;5.97;5.47;;;;;;;13.12;100.00;63348.75;5021440;28;20306;-77
2023/05/08 04:39:53;;;;;;;5.90;5.38;;;;;;;13.01;100.00;63339.88;5024387;28;20253;-76
2023/05/08 04:42:20;;;;;;;6.60;4.80;;;;;;;13.35;100.00;63380.31;5007020;28;20540;-77
2023/05/08 04:44:48;;;;;;;8.40;5.55;;;;;;;13.44;100.00;63387.06;5021199;28;20290;-78
2023/05/08 04:47:16;;;;;;;11.23;5.43;;;;;;;13.55;100.00;63395.94;5023290;28;20221;-77
2023/05/08 04:49:43;;;;;;;5.78;5.28;;;;;;;13.69;100.00;63409.94;5017982;28;20233;-79
2023/05/08 04:52:11;;;;;;;6.78;5.75;;;;;;;13.89;100.00;63431.22;5024248;28;20226;-78
2023/05/08 04:54:38;;;;;;;9.85;6.15;;;;;;;14.07;99.05;63448.88;5024495;28;20283;-78
2023/05/08 04:57:06;;;;;;;8.10;6.20;;;;;;;14.05;99.25;63447.31;5027128;28;20527;-78
2023/05/08 04:59:33;;;;;;;7.57;5.50;;;;;;;14.12;98.69;63456.59;5021902;28;20226;-78
2023/05/08 05:02:01;;;;;;;5.97;5.43;;;;;;;14.11;95.73;63461.22;5025443;28;20298;-78
2023/05/08 05:04:30;;;;;;;6.53;5.90;;;;;;;14.18;95.00;63460.28;5025591;28;20423;-78
2023/05/08 05:06:57;;;;;;;5.78;5.28;;;;;;;14.17;94.71;63459.25;5021448;28;20399;-77
2023/05/08 05:09:24;;;;;;;8.70;5.15;;;;;;;14.31;93.97;63476.38;5025143;28;20416;-79
2023/05/08 05:11:52;;;;;;;6.53;5.50;;;;;;;14.33;91.96;63475.88;5025654;28;20222;-76
2023/05/08 05:14:19;;;;;;;6.78;6.07;;;;;;;14.28;91.61;63470.69;5024882;28;20262;-77
2023/05/08 05:16:47;;;;;;;6.63;6.13;;;;;;;14.20;93.43;63464.94;5022006;28;20281;-78
2023/05/08 05:19:14;;;;;;;6.03;5.47;;;;;;;14.28;92.13;63468.66;5027304;28;20201;-77
2023/05/08 05:21:42;;;;;;;6.20;5.22;;;;;;;14.31;91.70;63479.44;5025826;28;20534;-77
2023/05/08 05:24:10;;;;;;;7.72;5.30;;;;;;;14.44;89.83;63487.84;5027767;28;20205;-78
2023/05/08 05:26:37;;;;;;;9.60;5.57;;;;;;;14.29;89.63;63474.31;5026726;28;20244;-78
2023/05/08 05:29:05;;;;;;;7.70;5.28;;;;;;;14.39;88.71;63482.13;5025264;28;21287;-78
2023/05/08 05:31:32;;;;;;;6.10;5.57;;;;;;;14.41;89.36;63489.81;5028418;28;20225;-77
2023/05/08 05:33:59;;;;;;;8.43;5.50;;;;;;;14.40;90.29;63486.25;5025154;28;20203;-76
2023/05/08 05:36:28;;;;;;;6.93;6.35;;;;;;;14.22;92.21;63464.97;5024855;28;20253;-78
2023/05/08 05:38:56;;;;;;;7.78;6.45;;;;;;;14.30;94.41;63475.34;5025071;28;20254;-78
2023/05/08 05:41:24;;;;;;;8.32;5.88;;;;;;;14.33;92.74;63476.41;5024044;28;20218;-77
2023/05/08 05:43:51;;;;;;;10.13;6.65;;;;;;;14.24;93.05;63472.16;5024539;28;20419;-77
2023/05/08 05:46:19;;;;;;;10.18;6.45;;;;;;;14.18;92.13;63457.72;5025382;28;20214;-76
2023/05/08 05:48:45;;;;;;;7.60;6.50;;;;;;;14.22;94.13;63469.56;5026448;28;20342;-78
2023/05/08 05:51:13;;;;;;;7.53;6.82;;;;;;;14.38;90.51;63481.06;5027154;28;20227;-76
2023/05/08 05:53:40;;;;;;;8.88;6.28;;;;;;;14.51;88.66;63497.66;5016820;28;20542;-77
2023/05/08 05:56:09;;;;;;;8.95;6.70;;;;;;;14.80;87.53;63530.34;5024933;28;20194;-78
2023/05/08 05:58:36;;;;;;;11.50;6.88;;;;;;;15.04;85.71;63555.28;5027478;28;20213;-77
2023/05/08 06:01:04;;;;;;;7.57;6.50;;;;;;;15.11;84.13;63556.38;5025161;28;20254;-78
2023/05/08 06:03:31;;;;;;;9.30;5.90;;;;;;;15.24;83.42;63577.59;5010682;28;20263;-79
2023/05/08 06:05:58;;;;;;;8.88;6.07;;;;;;;15.39;82.04;63590.63;5021025;28;20214;-78
2023/05/08 06:08:25;;;;;;;9.75;6.10;;;;;;;15.54;81.76;63601.09;5025168;28;20233;-78
2023/05/08 06:10:52;;;;;;;6.72;5.80;;;;;;;15.83;79.56;63636.38;5025584;28;20222;-77
2023/05/08 06:13:21;;;;;;;6.47;5.97;;;;;;;15.81;82.61;63632.25;5024885;28;20402;-77
2023/05/08 06:15:49;;;;;;;6.78;6.15;;;;;;;15.67;80.59;63610.00;5027232;28;20208;-77
2023/05/08 06:18:16;;;;;;;6.68;6.07;;;;;;;15.78;80.93;63626.03;5024745;28;20222;-78
2023/05/08 06:20:43;;;;;;;10.13;5.90;;;;;;;15.98;78.40;63655.06;5015569;28;20199;-77
2023/05/08 06:23:11;;;;;;;11.85;6.20;;;;;;;16.33;78.38;63685.81;5010895;28;20305;-78
2023/05/08 06:25:38;;;;;;;8.25;5.53;;;;;;;16.30;77.09;63680.13;5026966;28;20507;-77
2023/05/08 06:28:06;;;;;;;6.50;5.93;;;;;;;16.66;76.00;63722.22;5026082;28;20241;-78
2023/05/08 06:30:35;;;;;;;7.32;6.60;;;;;;;16.91;71.27;63743.59;5026005;28;20426;-76
2023/05/08 06:33:02;;;;;;;6.15;5.53;;;;;;;17.05;70.65;63758.19;5024813;28;20561;-76
2023/05/08 06:35:29;;;;;;;6.00;5.45;;;;;;;17.00;71.02;63752.97;5025722;28;20202;-75
2023/05/08 06:37:56;;;;;;;6.80;5.75;;;;;;;17.04;71.20;63759.19;5023194;28;20244;-78
2023/05/08 06:40:24;;;;;;;5.45;4.85;;;;;;;17.02;69.28;63757.09;5025093;28;20206;-78
2023/05/08 06:42:51;;;;;;;5.82;5.03;;;;;;;17.28;69.90;63787.28;5022159;28;20218;-75
2023/05/08 06:45:18;;;;;;;5.95;5.20;;;;;;;16.91;71.23;63743.59;5024766;28;20222;-76
2023/05/08 06:47:47;;;;;;;6.20;5.57;;;;;;;17.19;68.98;63774.78;5022233;28;20229;-77
2023/05/08 06:50:14;;;;;;;6.05;5.50;;;;;;;17.59;66.87;63816.47;5025093;28;20228;-76
2023/05/08 06:52:41;;;;;;;5.40;4.38;;;;;;;17.64;65.83;63821.16;5026340;28;20214;-78
2023/05/08 06:55:09;;;;;;;7.63;5.22;;;;;;;17.58;65.79;63823.16;5025387;28;20190;-78
2023/05/08 06:57:36;;;;;;;5.97;5.13;;;;;;;17.59;65.55;63813.38;5022076;28;20542;-77
2023/05/08 07:00:05;;;;;;;4.97;4.07;;;;;;;17.72;65.09;63832.06;5025082;28;20436;-75
2023/05/08 07:02:32;;;;;;;5.78;5.20;;;;;;;17.66;65.20;63823.75;5024640;28;20220;-76
2023/05/08 07:05:00;;;;;;;5.03;4.60;;;;;;;17.47;64.91;63803.97;5024696;28;20221;-76
2023/05/08 07:07:27;;;;;;;6.88;4.85;;;;;;;17.53;66.44;63812.81;5026303;28;20277;-77
2023/05/08 07:09:55;;;;;;;5.50;4.55;;;;;;;17.37;66.93;63796.13;5024007;28;20225;-76
2023/05/08 07:12:22;;;;;;;6.25;4.78;;;;;;;17.42;66.47;63798.75;5021579;28;20226;-78
2023/05/08 07:14:49;;;;;;;5.75;5.05;;;;;;;17.62;66.47;63822.16;5015491;28;20209;-74
2023/05/08 07:17:16;;;;;;;5.72;5.32;;;;;;;17.74;65.80;63831.56;5012581;28;20210;-79
2023/05/08 07:19:43;;;;;;;7.68;5.30;;;;;;;17.81;66.47;63841.44;5024648;28;20206;-77
2023/05/08 07:22:11;;;;;;;6.18;5.65;;;;;;;17.83;65.66;63836.31;5024492;28;20222;-76
2023/05/08 07:24:38;;;;;;;10.73;5.70;;;;;;;17.67;64.77;63824.28;5013470;28;20249;-75
2023/05/08 07:27:05;;;;;;;6.38;5.82;;;;;;;17.92;64.54;63850.84;5021379;28;20268;-76
2023/05/08 07:29:32;;;;;;;8.90;5.75;;;;;;;17.90;63.93;63851.31;5023733;28;20230;-76
2023/05/08 07:31:59;;;;;;;7.78;5.70;;;;;;;18.01;62.69;63860.22;5024522;28;20245;-76
2023/05/08 07:34:38;;;;;;;10.27;6.07;;;;;;;18.41;60.59;63906.53;5024636;28;20213;-76
2023/05/08 07:37:05;;;;;;;12.25;5.72;;;;;;;18.89;58.90;63948.84;5023885;28;20232;-77
2023/05/08 07:39:34;;;;;;;8.63;6.10;;;;;;;18.44;57.94;63901.94;5025858;28;20207;-76
2023/05/08 07:42:01;;;;;;;6.18;5.57;;;;;;;18.44;58.80;63907.09;5023014;28;20296;-76
2023/05/08 07:44:31;;;;;;;6.90;6.22;;;;;;;18.43;58.79;63903.47;5024675;28;20198;-76
2023/05/08 07:46:58;;;;;;;5.75;5.28;;;;;;;18.78;59.40;63936.84;5024326;28;20264;-77
2023/05/08 07:49:25;;;;;;;9.82;5.40;;;;;;;18.98;58.17;63960.78;5023666;28;20289;-77
2023/05/08 07:51:52;;;;;;;8.18;5.45;;;;;;;18.78;56.07;63936.84;5017604;28;20253;-75
2023/05/08 07:54:19;;;;;;;5.63;5.22;;;;;;;19.04;56.01;63967.03;5021973;28;20198;-76
2023/05/08 07:56:48;;;;;;;5.93;5.38;;;;;;;18.63;59.41;63924.31;5023704;28;20230;-75
2023/05/08 07:59:14;;;;;;;4.97;4.55;;;;;;;18.82;58.41;63944.13;5022966;28;20226;-75
2023/05/08 08:01:46;;;;;;;6.13;5.25;;;;;;;18.27;57.85;63884.19;5007728;28;20230;-77
2023/05/08 08:04:13;;;;;;;5.85;5.35;;;;;;;18.44;57.24;63904.50;5016645;28;20205;-76
2023/05/08 08:06:40;;;;;;;6.70;4.90;;;;;;;18.32;58.52;63895.09;5023170;28;20233;-76
2023/05/08 08:09:07;;;;;;;6.07;5.57;;;;;;;17.96;59.81;63857.06;5015087;28;20201;-75
2023/05/08 08:11:35;;;;;;;7.65;6.43;;;;;;;17.84;60.54;63839.41;5023153;28;20217;-77
2023/05/08 08:14:03;;;;;;;6.57;5.75;;;;;;;18.22;59.04;63881.56;5023688;28;20252;-75
2023/05/08 08:16:32;;;;;;;7.68;6.05;;;;;;;17.90;59.83;63848.75;5029002;28;20541;-76
2023/05/08 08:18:59;;;;;;;7.97;7.18;;;;;;;17.66;60.65;63821.19;5024001;28;20202;-75
2023/05/08 08:21:27;;;;;;;8.88;7.05;;;;;;;17.78;61.51;63838.31;5023348;28;20225;-76
2023/05/08 08:23:54;;;;;;;6.93;6.38;;;;;;;18.06;60.81;63867.47;5023874;28;20505;-76
2023/05/08 08:26:21;;;;;;;8.20;7.38;;;;;;;18.09;60.76;63871.13;5024263;28;20226;-75
2023/05/08 08:28:48;;;;;;;11.05;8.18;;;;;;;18.05;60.36;63866.94;5030090;28;20265;-75
2023/05/08 08:31:18;;;;;;;8.77;7.82;;;;;;;18.32;60.72;63892.50;5027709;28;20404;-77
2023/05/08 08:33:45;;;;;;;11.95;7.38;;;;;;;18.43;60.82;63903.47;5031201;28;20206;-76
2023/05/08 08:36:16;;;;;;;7.07;5.95;;;;;;;18.64;58.98;63922.75;5028834;28;20233;-76
2023/05/08 08:38:43;;;;;;;10.52;5.65;;;;;;;18.40;59.55;63905.50;5028758;28;20507;-77
2023/05/08 08:41:14;;;;;;;7.05;6.05;;;;;;;18.69;58.00;63935.72;5028072;28;20202;-77
2023/05/08 08:43:42;;;;;;;12.40;6.10;;;;;;;18.91;57.16;63953.50;5029498;28;20220;-77
2023/05/08 08:46:13;;;;;;;6.05;5.53;;;;;;;19.29;55.26;63993.09;5009618;28;20543;-77
2023/05/08 08:48:44;;;;;;;5.97;5.10;;;;;;;19.50;55.87;64014.50;5023260;28;20209;-76
2023/05/08 08:51:18;;;;;;;5.85;5.35;;;;;;;19.93;55.45;64061.44;5028349;28;20234;-77
2023/05/08 08:53:50;;;;;;;8.30;5.88;;;;;;;20.43;52.85;64108.44;5028364;28;20205;-76
2023/05/08 08:56:17;;;;;;;4.85;4.35;;;;;;;20.54;52.23;64120.44;5028138;28;20221;-76
2023/05/08 08:58:50;;;;;;;5.10;4.80;;;;;;;19.84;54.56;64049.44;5025024;28;20267;-77
2023/05/08 09:01:19;;;;;;;5.47;5.15;;;;;;;19.79;54.95;64039.59;5034335;28;20254;-76
2023/05/08 09:03:48;;;;;;;5.78;5.30;;;;;;;20.11;53.86;64080.72;5026122;28;20205;-76
2023/05/08 09:06:16;;;;;;;5.63;5.10;;;;;;;20.01;54.13;64070.28;5028820;28;20554;-76
2023/05/08 09:08:44;;;;;;;4.88;4.50;;;;;;;19.99;53.19;64065.63;5030403;28;20213;-75
2023/05/08 09:11:11;;;;;;;5.57;4.80;;;;;;;19.49;54.58;64016.03;5026467;28;20292;-76
2023/05/08 09:13:38;;;;;;;5.35;4.95;;;;;;;19.04;57.22;63969.09;5028385;28;20205;-77
2023/05/08 09:16:07;;;;;;;8.88;6.05;;;;;;;19.09;57.44;63974.31;5029539;28;20218;-78
2023/05/08 09:18:34;;;;;;;5.25;4.78;;;;;;;19.46;57.95;64018.09;5028212;28;20209;-77
2023/05/08 09:21:02;;;;;;;5.80;5.00;;;;;;;19.48;57.99;64018.09;5025857;28;20198;-76
2023/05/08 09:23:29;;;;;;;5.28;4.78;;;;;;;19.77;57.57;64042.66;5027112;28;20213;-76
2023/05/08 09:25:57;;;;;;;6.00;5.40;;;;;;;20.06;56.86;64072.41;5025774;28;20191;-77
2023/05/08 09:28:26;;;;;;;7.72;6.03;;;;;;;20.22;57.26;64087.06;5026700;28;20198;-77
2023/05/08 09:30:54;;;;;;;6.45;5.90;;;;;;;20.08;57.04;64077.59;5025610;28;20572;-78
2023/05/08 09:33:23;;;;;;;5.75;5.18;;;;;;;19.92;58.54;64060.91;5023024;28;20194;-77
2023/05/08 09:35:50;;;;;;;7.80;5.53;;;;;;;19.83;60.02;64051.00;5024819;28;21471;-76
2023/05/08 09:38:36;;;;;;;6.25;5.60;;;;;;;20.16;60.11;64080.78;5022169;28;20227;-77
2023/05/08 09:41:10;;;;;;;6.05;5.50;;;;;;;20.21;60.19;64083.41;5027371;28;20196;-77
2023/05/08 09:43:38;;;;;;;5.38;4.88;;;;;;;20.16;59.44;64080.78;5024520;28;20252;-77
2023/05/08 09:46:30;;;;;;;12.98;5.45;;;;;;;20.12;59.19;64083.84;5025374;28;20273;-78
2023/05/08 09:48:59;;;;;;;4.93;4.45;;;;;;;20.17;57.90;64083.91;5013294;28;20225;-77
2023/05/08 09:51:31;;;;;;;5.97;4.65;;;;;;;20.16;56.99;64085.97;5023016;28;20288;-77
2023/05/08 09:54:02;;;;;;;4.95;4.43;;;;;;;20.52;55.13;64117.81;5027380;28;20228;-78
2023/05/08 09:56:35;;;;;;;7.28;4.72;;;;;;;21.13;53.14;64181.00;5023158;28;20224;-76
2023/05/08 09:59:03;;;;;;;7.25;5.57;;;;;;;20.72;53.53;64140.78;5025597;28;20194;-76
2023/05/08 10:01:32;;;;;;;7.32;5.15;;;;;;;20.20;55.53;64084.97;5034094;28;20580;-76
2023/05/08 10:04:00;;;;;;;8.27;5.65;;;;;;;20.55;55.32;64120.97;5026567;28;20217;-78
2023/05/08 10:06:28;;;;;;;5.55;5.05;;;;;;;21.25;52.88;64201.31;5016124;28;20234;-77
2023/05/08 10:09:13;;;;;;;12.77;6.40;;;;;;;21.36;50.99;64208.16;5023650;28;20281;-77
2023/05/08 10:11:41;;;;;;;11.55;6.13;;;;;;;21.53;51.75;64227.97;5026363;28;20233;-77
2023/05/08 10:14:09;;;;;;;5.75;4.97;;;;;;;22.15;49.08;64289.66;5024994;28;20202;-78
2023/05/08 10:16:41;;;;;;;5.68;5.18;;;;;;;22.59;47.72;64343.47;5026907;28;20241;-77
2023/05/08 10:19:14;;;;;;;9.52;5.45;;;;;;;23.03;46.53;64379.09;5025640;28;20269;-77
2023/05/08 10:21:44;;;;;;;6.88;5.60;;;;;;;22.48;47.42;64324.69;5025356;28;20229;-77
2023/05/08 10:24:17;;;;;;;5.55;5.05;;;;;;;22.39;47.97;64317.88;5034930;28;20228;-77
2023/05/08 10:26:52;;;;;;;6.18;5.68;;;;;;;22.31;48.32;64303.78;5047926;28;20518;-77
2023/05/08 10:29:25;;;;;;;6.88;5.95;;;;;;;21.72;49.15;64248.34;5007044;28;20198;-76
2023/05/08 10:31:58;;;;;;;10.45;5.70;;;;;;;21.05;51.58;64178.38;5014072;28;20238;-76
2023/05/08 10:34:28;;;;;;;6.63;5.47;;;;;;;21.43;51.00;64215.44;5026336;28;20218;-77
2023/05/08 10:36:55;;;;;;;5.70;5.35;;;;;;;21.48;51.59;64225.34;5025523;28;20218;-75
2023/05/08 10:39:25;;;;;;;6.22;5.82;;;;;;;21.60;51.29;64235.28;5022186;28;20265;-77
2023/05/08 10:41:53;;;;;;;6.97;5.85;;;;;;;21.66;52.05;64239.47;5031749;28;20457;-76
2023/05/08 10:44:21;;;;;;;6.50;5.97;;;;;;;21.97;50.52;64273.97;5033588;28;20215;-78
2023/05/08 10:46:54;;;;;;;6.18;5.68;;;;;;;22.13;50.48;64290.16;5031625;28;20214;-78
2023/05/08 10:49:28;;;;;;;6.85;5.63;;;;;;;22.14;51.97;64288.63;5027067;28;20279;-78
2023/05/08 10:52:09;;;;;;;6.90;5.57;;;;;;;20.78;54.54;64147.06;5025601;28;20244;-76
2023/05/08 10:54:51;;;;;;;5.72;5.15;;;;;;;21.31;53.45;64205.50;5027885;28;20525;-77
2023/05/08 10:57:18;;;;;;;6.07;5.57;;;;;;;20.63;54.55;64131.91;5025534;28;20225;-74
2023/05/08 10:59:46;;;;;;;7.28;5.25;;;;;;;20.59;55.44;64133.44;5025952;28;20198;-78
2023/05/08 11:02:14;;;;;;;7.60;5.50;;;;;;;20.52;55.60;64118.34;5028236;28;20213;-75
2023/05/08 11:04:42;;;;;;;7.13;5.03;;;;;;;20.59;56.05;64128.25;5026321;28;20240;-75
2023/05/08 11:07:10;;;;;;;9.02;5.93;;;;;;;20.43;56.35;64111.03;5023660;28;20214;-78
2023/05/08 11:09:48;;;;;;;6.45;5.82;;;;;;;20.88;55.91;64160.59;5025777;28;20197;-78
2023/05/08 11:12:25;;;;;;;6.03;5.00;;;;;;;21.41;54.96;64212.84;5024367;28;20236;-78
2023/05/08 11:15:00;;;;;;;6.10;5.50;;;;;;;21.46;53.63;64220.66;5025337;28;20581;-77
2023/05/08 11:17:27;;;;;;;7.57;5.05;;;;;;;21.88;54.49;64261.97;5024419;28;20228;-77
2023/05/08 11:19:59;;;;;;;8.02;5.43;;;;;;;21.70;53.38;64243.66;5024493;28;20206;-77
2023/05/08 11:22:28;;;;;;;5.45;4.97;;;;;;;21.93;54.28;64269.28;5026253;28;20285;-79
2023/05/08 11:24:59;;;;;;;6.55;5.72;;;;;;;21.70;53.22;64248.31;5020004;28;20202;-77
2023/05/08 11:28:11;;;;;;;6.40;5.53;;;;;;;22.05;51.33;64277.16;5027265;28;20267;-77
2023/05/08 11:30:40;;;;;;;5.78;5.22;;;;;;;22.18;51.93;64301.09;5021380;28;20275;-79
2023/05/08 11:33:17;;;;;;;6.35;5.50;;;;;;;22.40;51.95;64315.81;5023958;28;20384;-76
2023/05/08 11:35:55;;;;;;;6.10;5.50;;;;;;;22.58;49.61;64334.63;5022052;28;20217;-77
2023/05/08 11:38:34;;;;;;;7.65;5.45;;;;;;;22.62;51.75;64341.91;5026040;28;20206;-77
2023/05/08 11:41:07;;;;;;;6.40;5.88;;;;;;;22.60;52.32;64337.25;5021587;28;20194;-78
2023/05/08 11:44:13;;;;;;;7.60;5.55;;;;;;;22.43;53.94;64321.53;5021959;28;20238;-78